Etusivu
METAR-TAF:

METAR-TAF

Lentoasemat :

La Romana, Dominikaaninen tasavalta

Leveyspiiri: 18-25N, Pituuspiiri: 068-57W, korkeus merenpinnasta: 8 m

Tämänhetkinen sää

Tämä raportti tehtiin 38 minuuttia sitten, kello 03.00 UTC
Tuuli 6 kn idästä/koillisesta
Lämpötila 20°C
Kosteus 100%
Ilmanpaine 1017 hPa
Näkyvyys 10 km tai enemmän
Muutamia pilviä 1600 ft:n korkeudessa

METAR: MDLR 240300Z 07006KT 9999 FEW016 20/20 Q1017 NOSIG

Aika: 23:38 (03:38 UTC)

Sääennuste

Tämä raportti tehtiin 5 tuntia ja 38 minuuttia sitten, kello 22.00 UTC
Ennuste voimassa 24. päivästä klo 00 UTC - 25. päivään klo 00 UTC
Tuuli 10 kn idästä
Näkyvyys 10 km tai enemmän
Hajanaisia pilviä 2000 ft:n korkeudessa
Tulossa
24. päivästä klo 00 UTC - 24. päivään klo 02 UTC
Tuuli kn pohjoisesta

TAF: MDLR 232200Z 2400/2500 09010KT 9999 SCT020 BECMG 2400/2402 00000KT

Säähavainnot ja -ennusteet yli 4000 lentoasemalta (METAR- ja TAF-raportit).

Käytössä olevat sääasemat on merkitty karttaan keltaisilla ja punaisilla pisteillä.

Aseta hiiri pisteen päälle nähdäksesi sääaseman nimen.

Klikkaa sitten nähdäksesi säähavainnot ja -ennusteet.

Kartan vaihtaminen: klikkaa mustalla rastilla varustettuja vihreitä pisteitä, niin voit zoomata sisään; viivalla varustettua vihreää pistettä, niin voit zoomata ulos tai vihreitä nuolia, niin pääset viereisille kartoille.


METAR-TAF: